sensor_id;sensor_type;location;lat;lon;timestamp;pressure;altitude;pressure_sealevel;temperature;humidity
62847;BME280;49477;35.676;139.586;2023-04-25T00:01:25;102032.47;;;20.70;27.61
62847;BME280;49477;35.676;139.586;2023-04-25T00:03:54;102033.62;;;20.97;27.75
62847;BME280;49477;35.676;139.586;2023-04-25T00:06:24;102034.67;;;21.04;27.79
62847;BME280;49477;35.676;139.586;2023-04-25T00:08:53;102038.10;;;21.09;27.90
62847;BME280;49477;35.676;139.586;2023-04-25T00:11:23;102034.77;;;21.15;27.66
62847;BME280;49477;35.676;139.586;2023-04-25T00:13:52;102027.41;;;21.20;27.59
62847;BME280;49477;35.676;139.586;2023-04-25T00:16:21;102026.96;;;20.97;26.83
62847;BME280;49477;35.676;139.586;2023-04-25T00:18:50;102023.14;;;21.33;27.52
62847;BME280;49477;35.676;139.586;2023-04-25T00:21:20;102026.60;;;21.40;27.18
62847;BME280;49477;35.676;139.586;2023-04-25T00:23:49;102028.78;;;21.17;27.37
62847;BME280;49477;35.676;139.586;2023-04-25T00:26:18;102025.94;;;21.01;27.28
62847;BME280;49477;35.676;139.586;2023-04-25T00:28:48;102031.22;;;21.30;27.50
62847;BME280;49477;35.676;139.586;2023-04-25T00:31:17;102028.64;;;21.35;27.61
62847;BME280;49477;35.676;139.586;2023-04-25T00:33:47;102021.32;;;21.41;27.67
62847;BME280;49477;35.676;139.586;2023-04-25T00:36:17;102022.41;;;21.24;27.52
62847;BME280;49477;35.676;139.586;2023-04-25T00:38:46;102023.32;;;21.55;27.34
62847;BME280;49477;35.676;139.586;2023-04-25T00:41:16;102021.69;;;21.39;27.15
62847;BME280;49477;35.676;139.586;2023-04-25T00:43:47;102014.23;;;21.69;27.17
62847;BME280;49477;35.676;139.586;2023-04-25T00:46:17;102011.69;;;21.52;27.19
62847;BME280;49477;35.676;139.586;2023-04-25T00:48:46;102014.58;;;21.81;27.03
62847;BME280;49477;35.676;139.586;2023-04-25T00:51:19;102011.32;;;21.86;27.06
62847;BME280;49477;35.676;139.586;2023-04-25T00:53:51;102009.82;;;21.43;26.16
62847;BME280;49477;35.676;139.586;2023-04-25T00:56:22;102004.71;;;22.00;26.48
62847;BME280;49477;35.676;139.586;2023-04-25T00:58:54;102000.98;;;22.08;26.86
62847;BME280;49477;35.676;139.586;2023-04-25T01:01:24;101998.18;;;21.69;26.42
62847;BME280;49477;35.676;139.586;2023-04-25T01:03:54;101998.63;;;21.99;26.47
62847;BME280;49477;35.676;139.586;2023-04-25T01:06:26;101994.43;;;21.85;26.87
62847;BME280;49477;35.676;139.586;2023-04-25T01:08:55;101990.64;;;22.13;26.32
62847;BME280;49477;35.676;139.586;2023-04-25T01:11:26;101985.75;;;22.00;26.79
62847;BME280;49477;35.676;139.586;2023-04-25T01:13:55;101983.34;;;21.98;25.90
62847;BME280;49477;35.676;139.586;2023-04-25T01:16:25;101986.86;;;22.05;26.54
62847;BME280;49477;35.676;139.586;2023-04-25T01:18:55;101987.53;;;22.33;26.38
62847;BME280;49477;35.676;139.586;2023-04-25T01:21:24;101993.82;;;22.19;26.42
62847;BME280;49477;35.676;139.586;2023-04-25T01:23:55;101989.29;;;22.28;26.17
62847;BME280;49477;35.676;139.586;2023-04-25T01:26:25;101982.59;;;22.30;26.25
62847;BME280;49477;35.676;139.586;2023-04-25T01:28:56;101975.34;;;22.37;26.51
62847;BME280;49477;35.676;139.586;2023-04-25T01:31:26;101973.11;;;22.16;26.52
62847;BME280;49477;35.676;139.586;2023-04-25T01:33:56;101969.66;;;22.48;25.83
62847;BME280;49477;35.676;139.586;2023-04-25T01:36:26;101969.10;;;22.30;25.93
62847;BME280;49477;35.676;139.586;2023-04-25T01:38:55;101959.41;;;22.58;25.60
62847;BME280;49477;35.676;139.586;2023-04-25T01:41:25;101962.10;;;22.35;26.10
62847;BME280;49477;35.676;139.586;2023-04-25T01:43:55;101964.39;;;22.60;26.48
62847;BME280;49477;35.676;139.586;2023-04-25T01:46:26;101960.73;;;22.62;26.44
62847;BME280;49477;35.676;139.586;2023-04-25T01:48:56;101957.04;;;22.38;26.54
62847;BME280;49477;35.676;139.586;2023-04-25T01:51:25;101944.72;;;22.39;26.51
62847;BME280;49477;35.676;139.586;2023-04-25T01:53:55;101928.10;;;22.42;26.50
62847;BME280;49477;35.676;139.586;2023-04-25T01:56:27;101924.09;;;22.41;26.41
62847;BME280;49477;35.676;139.586;2023-04-25T01:58:59;101918.01;;;22.72;26.42
62847;BME280;49477;35.676;139.586;2023-04-25T02:01:28;101912.10;;;22.75;26.54
62847;BME280;49477;35.676;139.586;2023-04-25T02:03:58;101909.76;;;22.77;26.60
62847;BME280;49477;35.676;139.586;2023-04-25T02:06:27;101902.00;;;22.50;26.63
62847;BME280;49477;35.676;139.586;2023-04-25T02:08:57;101905.81;;;22.56;26.49
62847;BME280;49477;35.676;139.586;2023-04-25T02:11:26;101905.46;;;22.62;26.29
62847;BME280;49477;35.676;139.586;2023-04-25T02:13:57;101895.91;;;22.65;26.38
62847;BME280;49477;35.676;139.586;2023-04-25T02:16:26;101891.69;;;22.56;26.37
62847;BME280;49477;35.676;139.586;2023-04-25T02:18:55;101889.46;;;22.86;26.41
62847;BME280;49477;35.676;139.586;2023-04-25T02:21:25;101886.22;;;22.70;26.49
62847;BME280;49477;35.676;139.586;2023-04-25T02:23:54;101886.72;;;22.98;26.51
62847;BME280;49477;35.676;139.586;2023-04-25T02:26:24;101876.34;;;23.05;26.48
62847;BME280;49477;35.676;139.586;2023-04-25T02:28:53;101869.28;;;23.32;26.50
62847;BME280;49477;35.676;139.586;2023-04-25T02:31:23;101861.16;;;23.09;26.54
62847;BME280;49477;35.676;139.586;2023-04-25T02:33:52;101857.13;;;23.13;26.56
62847;BME280;49477;35.676;139.586;2023-04-25T02:36:22;101848.70;;;23.21;26.60
62847;BME280;49477;35.676;139.586;2023-04-25T02:38:51;101843.85;;;23.26;26.58
62847;BME280;49477;35.676;139.586;2023-04-25T02:41:21;101840.18;;;23.07;26.55
62847;BME280;49477;35.676;139.586;2023-04-25T02:43:50;101839.77;;;23.31;26.61
62847;BME280;49477;35.676;139.586;2023-04-25T02:46:20;101831.82;;;23.34;26.61
62847;BME280;49477;35.676;139.586;2023-04-25T02:48:49;101834.89;;;23.42;26.59
62847;BME280;49477;35.676;139.586;2023-04-25T02:51:19;101831.03;;;23.25;26.51
62847;BME280;49477;35.676;139.586;2023-04-25T02:53:48;101831.93;;;23.52;26.48
62847;BME280;49477;35.676;139.586;2023-04-25T02:56:17;101827.27;;;23.56;26.51
62847;BME280;49477;35.676;139.586;2023-04-25T02:58:47;101820.52;;;23.53;26.47
62847;BME280;49477;35.676;139.586;2023-04-25T03:01:16;101817.34;;;23.37;26.44
62847;BME280;49477;35.676;139.586;2023-04-25T03:03:45;101813.49;;;23.58;26.50
62847;BME280;49477;35.676;139.586;2023-04-25T03:06:15;101804.99;;;23.39;26.54
62847;BME280;49477;35.676;139.586;2023-04-25T03:08:44;101797.81;;;23.35;26.54
62847;BME280;49477;35.676;139.586;2023-04-25T03:11:13;101792.27;;;23.41;26.51
62847;BME280;49477;35.676;139.586;2023-04-25T03:13:43;101786.30;;;23.44;26.53
62847;BME280;49477;35.676;139.586;2023-04-25T03:16:12;101783.27;;;23.46;26.50
62847;BME280;49477;35.676;139.586;2023-04-25T03:18:42;101781.56;;;23.49;26.51
62847;BME280;49477;35.676;139.586;2023-04-25T03:21:11;101783.09;;;23.56;26.58
62847;BME280;49477;35.676;139.586;2023-04-25T03:23:41;101787.69;;;23.58;26.72
62847;BME280;49477;35.676;139.586;2023-04-25T03:26:10;101778.01;;;23.60;26.76
62847;BME280;49477;35.676;139.586;2023-04-25T03:28:40;101776.28;;;23.63;26.81
62847;BME280;49477;35.676;139.586;2023-04-25T03:31:10;101774.06;;;23.68;26.80
62847;BME280;49477;35.676;139.586;2023-04-25T03:33:39;101771.22;;;23.68;26.83
62847;BME280;49477;35.676;139.586;2023-04-25T03:36:09;101769.46;;;23.71;26.79
62847;BME280;49477;35.676;139.586;2023-04-25T03:38:38;101772.28;;;23.53;26.82
62847;BME280;49477;35.676;139.586;2023-04-25T03:41:08;101774.38;;;23.73;26.82
62847;BME280;49477;35.676;139.586;2023-04-25T03:43:37;101774.48;;;23.78;26.73
62847;BME280;49477;35.676;139.586;2023-04-25T03:46:07;101768.42;;;23.79;26.72
62847;BME280;49477;35.676;139.586;2023-04-25T03:48:36;101768.78;;;23.43;26.57
62847;BME280;49477;35.676;139.586;2023-04-25T03:51:06;101761.41;;;23.48;26.51
62847;BME280;49477;35.676;139.586;2023-04-25T03:53:36;101762.89;;;23.80;26.45
62847;BME280;49477;35.676;139.586;2023-04-25T03:56:06;101762.49;;;24.02;26.49
62847;BME280;49477;35.676;139.586;2023-04-25T03:58:35;101767.74;;;23.79;26.54
62847;BME280;49477;35.676;139.586;2023-04-25T04:01:05;101761.05;;;23.80;26.43
62847;BME280;49477;35.676;139.586;2023-04-25T04:03:34;101757.44;;;23.81;26.47
62847;BME280;49477;35.676;139.586;2023-04-25T04:06:06;101756.94;;;24.04;26.44
62847;BME280;49477;35.676;139.586;2023-04-25T04:08:36;101749.01;;;24.03;26.59
62847;BME280;49477;35.676;139.586;2023-04-25T04:11:06;101749.72;;;24.04;26.59
62847;BME280;49477;35.676;139.586;2023-04-25T04:13:35;101745.93;;;24.02;26.56
62847;BME280;49477;35.676;139.586;2023-04-25T04:16:05;101736.69;;;24.01;26.53
62847;BME280;49477;35.676;139.586;2023-04-25T04:18:34;101737.77;;;23.75;26.69
62847;BME280;49477;35.676;139.586;2023-04-25T04:21:04;101734.35;;;23.95;26.71
62847;BME280;49477;35.676;139.586;2023-04-25T04:23:33;101734.87;;;23.72;26.77
62847;BME280;49477;35.676;139.586;2023-04-25T04:26:02;101730.51;;;23.69;26.78
62847;BME280;49477;35.676;139.586;2023-04-25T04:28:32;101733.85;;;23.90;26.77
62847;BME280;49477;35.676;139.586;2023-04-25T04:31:01;101740.94;;;23.87;26.82
62847;BME280;49477;35.676;139.586;2023-04-25T04:33:31;101740.95;;;23.60;26.89
62847;BME280;49477;35.676;139.586;2023-04-25T04:36:00;101750.20;;;23.81;26.92
62847;BME280;49477;35.676;139.586;2023-04-25T04:38:30;101753.89;;;23.78;26.93
62847;BME280;49477;35.676;139.586;2023-04-25T04:40:59;101753.08;;;23.06;26.93
62847;BME280;49477;35.676;139.586;2023-04-25T04:43:29;101747.24;;;23.79;26.87
62847;BME280;49477;35.676;139.586;2023-04-25T04:45:58;101748.92;;;23.75;26.89
62847;BME280;49477;35.676;139.586;2023-04-25T04:48:29;101740.99;;;23.49;26.97
62847;BME280;49477;35.676;139.586;2023-04-25T04:50:58;101734.71;;;23.46;27.04
62847;BME280;49477;35.676;139.586;2023-04-25T04:53:28;101727.82;;;23.65;27.04
62847;BME280;49477;35.676;139.586;2023-04-25T04:55:57;101728.26;;;23.62;27.02
62847;BME280;49477;35.676;139.586;2023-04-25T04:58:27;101727.25;;;23.61;27.04
62847;BME280;49477;35.676;139.586;2023-04-25T05:00:56;101725.02;;;23.59;27.08
62847;BME280;49477;35.676;139.586;2023-04-25T05:03:25;101721.91;;;23.36;27.06
62847;BME280;49477;35.676;139.586;2023-04-25T05:05:55;101717.98;;;23.59;27.06
62847;BME280;49477;35.676;139.586;2023-04-25T05:08:24;101716.78;;;23.58;27.07
62847;BME280;49477;35.676;139.586;2023-04-25T05:10:54;101717.80;;;23.58;27.08
62847;BME280;49477;35.676;139.586;2023-04-25T05:13:24;101712.95;;;23.59;27.08
62847;BME280;49477;35.676;139.586;2023-04-25T05:15:53;101710.16;;;23.84;27.09
62847;BME280;49477;35.676;139.586;2023-04-25T05:18:22;101711.02;;;23.65;27.09
62847;BME280;49477;35.676;139.586;2023-04-25T05:20:52;101708.78;;;23.66;27.09
62847;BME280;49477;35.676;139.586;2023-04-25T05:23:22;101712.64;;;23.73;27.02
62847;BME280;49477;35.676;139.586;2023-04-25T05:25:51;101718.59;;;23.75;26.98
62847;BME280;49477;35.676;139.586;2023-04-25T05:28:20;101720.70;;;23.77;27.00
62847;BME280;49477;35.676;139.586;2023-04-25T05:30:50;101718.48;;;23.55;26.96
62847;BME280;49477;35.676;139.586;2023-04-25T05:33:19;101711.68;;;23.76;27.00
62847;BME280;49477;35.676;139.586;2023-04-25T05:35:49;101707.82;;;23.76;27.03
62847;BME280;49477;35.676;139.586;2023-04-25T05:38:19;101702.10;;;24.00;27.04
62847;BME280;49477;35.676;139.586;2023-04-25T05:40:49;101697.19;;;23.57;27.04
62847;BME280;49477;35.676;139.586;2023-04-25T05:43:17;101696.32;;;23.81;27.02
62847;BME280;49477;35.676;139.586;2023-04-25T05:45:47;101693.55;;;23.85;26.92
62847;BME280;49477;35.676;139.586;2023-04-25T05:48:16;101689.15;;;23.89;26.91
62847;BME280;49477;35.676;139.586;2023-04-25T05:50:46;101688.23;;;23.89;26.88
62847;BME280;49477;35.676;139.586;2023-04-25T05:53:15;101687.80;;;23.92;26.87
62847;BME280;49477;35.676;139.586;2023-04-25T05:55:45;101689.43;;;23.97;26.87
62847;BME280;49477;35.676;139.586;2023-04-25T05:58:15;101687.72;;;23.96;26.82
62847;BME280;49477;35.676;139.586;2023-04-25T06:00:45;101686.38;;;23.95;26.88
62847;BME280;49477;35.676;139.586;2023-04-25T06:03:15;101679.28;;;23.95;26.86
62847;BME280;49477;35.676;139.586;2023-04-25T06:05:47;101681.11;;;23.93;26.85
62847;BME280;49477;35.676;139.586;2023-04-25T06:08:18;101683.44;;;23.93;26.78
62847;BME280;49477;35.676;139.586;2023-04-25T06:10:48;101687.70;;;23.91;26.85
62847;BME280;49477;35.676;139.586;2023-04-25T06:13:18;101691.18;;;23.88;26.86
62847;BME280;49477;35.676;139.586;2023-04-25T06:15:47;101687.37;;;23.87;26.81
62847;BME280;49477;35.676;139.586;2023-04-25T06:18:20;101691.62;;;23.83;26.85
62847;BME280;49477;35.676;139.586;2023-04-25T06:20:50;101690.62;;;23.81;26.88
62847;BME280;49477;35.676;139.586;2023-04-25T06:23:21;101683.44;;;23.57;26.89
62847;BME280;49477;35.676;139.586;2023-04-25T06:25:53;101679.07;;;23.77;26.86
62847;BME280;49477;35.676;139.586;2023-04-25T06:28:22;101679.09;;;23.76;26.91
62847;BME280;49477;35.676;139.586;2023-04-25T06:30:52;101673.77;;;23.69;26.95
62847;BME280;49477;35.676;139.586;2023-04-25T06:33:23;101668.78;;;23.68;26.96
62847;BME280;49477;35.676;139.586;2023-04-25T06:35:52;101676.04;;;23.66;27.05
62847;BME280;49477;35.676;139.586;2023-04-25T06:38:22;101666.94;;;23.63;27.06
62847;BME280;49477;35.676;139.586;2023-04-25T06:40:52;101663.90;;;23.61;27.15
62847;BME280;49477;35.676;139.586;2023-04-25T06:43:21;101665.66;;;23.60;27.24
62847;BME280;49477;35.676;139.586;2023-04-25T06:45:51;101662.90;;;23.79;27.32
62847;BME280;49477;35.676;139.586;2023-04-25T06:48:21;101664.03;;;23.56;27.30
62847;BME280;49477;35.676;139.586;2023-04-25T06:50:50;101668.65;;;23.56;27.33
62847;BME280;49477;35.676;139.586;2023-04-25T06:53:19;101664.90;;;23.54;27.40
62847;BME280;49477;35.676;139.586;2023-04-25T06:55:51;101668.44;;;23.51;27.40
62847;BME280;49477;35.676;139.586;2023-04-25T06:58:20;101668.60;;;23.49;27.39
62847;BME280;49477;35.676;139.586;2023-04-25T07:00:50;101666.21;;;23.48;27.47
62847;BME280;49477;35.676;139.586;2023-04-25T07:03:19;101664.96;;;23.44;27.48
62847;BME280;49477;35.676;139.586;2023-04-25T07:05:51;101660.72;;;23.42;27.49
62847;BME280;49477;35.676;139.586;2023-04-25T07:08:20;101657.06;;;23.62;27.50
62847;BME280;49477;35.676;139.586;2023-04-25T07:10:49;101655.95;;;23.39;27.51
62847;BME280;49477;35.676;139.586;2023-04-25T07:13:19;101654.72;;;23.63;27.51
62847;BME280;49477;35.676;139.586;2023-04-25T07:15:50;101653.89;;;23.37;27.58
62847;BME280;49477;35.676;139.586;2023-04-25T07:18:22;101655.40;;;23.34;27.54
62847;BME280;49477;35.676;139.586;2023-04-25T07:20:51;101651.72;;;23.32;27.55
62847;BME280;49477;35.676;139.586;2023-04-25T07:23:21;101652.96;;;23.55;27.55
62847;BME280;49477;35.676;139.586;2023-04-25T07:25:50;101655.46;;;23.31;27.58
62847;BME280;49477;35.676;139.586;2023-04-25T07:28:20;101657.52;;;23.30;27.62
62847;BME280;49477;35.676;139.586;2023-04-25T07:30:50;101663.18;;;23.30;27.63
62847;BME280;49477;35.676;139.586;2023-04-25T07:33:26;101660.16;;;23.29;27.60
62847;BME280;49477;35.676;139.586;2023-04-25T07:35:56;101657.53;;;23.29;27.60
62847;BME280;49477;35.676;139.586;2023-04-25T07:38:26;101658.39;;;23.74;27.73
62847;BME280;49477;35.676;139.586;2023-04-25T07:40:56;101658.45;;;23.23;27.76
62847;BME280;49477;35.676;139.586;2023-04-25T07:43:29;101654.80;;;23.23;27.78
62847;BME280;49477;35.676;139.586;2023-04-25T07:45:59;101652.36;;;23.23;27.70
62847;BME280;49477;35.676;139.586;2023-04-25T07:48:28;101653.90;;;23.46;27.65
62847;BME280;49477;35.676;139.586;2023-04-25T07:50:58;101657.00;;;23.70;27.59
62847;BME280;49477;35.676;139.586;2023-04-25T07:53:27;101660.02;;;23.23;27.61
62847;BME280;49477;35.676;139.586;2023-04-25T07:55:57;101653.76;;;23.44;27.59
62847;BME280;49477;35.676;139.586;2023-04-25T07:58:26;101650.36;;;23.19;27.60
62847;BME280;49477;35.676;139.586;2023-04-25T08:00:56;101645.93;;;23.41;27.63
62847;BME280;49477;35.676;139.586;2023-04-25T08:03:25;101646.72;;;23.42;27.63
62847;BME280;49477;35.676;139.586;2023-04-25T08:05:55;101645.62;;;23.40;27.61
62847;BME280;49477;35.676;139.586;2023-04-25T08:08:25;101640.83;;;23.17;27.65
62847;BME280;49477;35.676;139.586;2023-04-25T08:10:53;101639.82;;;23.36;27.71
62847;BME280;49477;35.676;139.586;2023-04-25T08:13:23;101639.17;;;23.36;27.76
62847;BME280;49477;35.676;139.586;2023-04-25T08:15:54;101638.58;;;23.37;27.86
62847;BME280;49477;35.676;139.586;2023-04-25T08:18:24;101636.78;;;23.39;27.81
62847;BME280;49477;35.676;139.586;2023-04-25T08:20:55;101634.22;;;23.39;27.86
62847;BME280;49477;35.676;139.586;2023-04-25T08:23:24;101635.06;;;23.38;27.94
62847;BME280;49477;35.676;139.586;2023-04-25T08:25:54;101636.85;;;23.38;27.93
62847;BME280;49477;35.676;139.586;2023-04-25T08:28:25;101640.81;;;23.15;27.96
62847;BME280;49477;35.676;139.586;2023-04-25T08:30:55;101641.41;;;23.12;28.04
62847;BME280;49477;35.676;139.586;2023-04-25T08:33:24;101636.26;;;23.36;27.95
62847;BME280;49477;35.676;139.586;2023-04-25T08:35:55;101641.56;;;23.36;27.97
62847;BME280;49477;35.676;139.586;2023-04-25T08:38:25;101643.59;;;23.13;28.02
62847;BME280;49477;35.676;139.586;2023-04-25T08:40:55;101643.91;;;23.12;27.96
62847;BME280;49477;35.676;139.586;2023-04-25T08:43:26;101637.60;;;23.14;27.89
62847;BME280;49477;35.676;139.586;2023-04-25T08:46:00;101629.76;;;23.35;27.84
62847;BME280;49477;35.676;139.586;2023-04-25T08:48:29;101635.65;;;23.11;27.90
62847;BME280;49477;35.676;139.586;2023-04-25T08:51:02;101636.13;;;23.11;27.89
62847;BME280;49477;35.676;139.586;2023-04-25T08:53:35;101643.02;;;23.32;27.87
62847;BME280;49477;35.676;139.586;2023-04-25T08:56:05;101645.87;;;23.32;27.91
62847;BME280;49477;35.676;139.586;2023-04-25T08:58:37;101645.30;;;23.09;27.93
62847;BME280;49477;35.676;139.586;2023-04-25T09:01:06;101647.74;;;23.30;27.90
62847;BME280;49477;35.676;139.586;2023-04-25T09:03:36;101648.31;;;23.29;27.94
62847;BME280;49477;35.676;139.586;2023-04-25T09:06:06;101645.65;;;23.04;27.91
62847;BME280;49477;35.676;139.586;2023-04-25T09:08:37;101646.51;;;23.26;27.90
62847;BME280;49477;35.676;139.586;2023-04-25T09:11:07;101641.74;;;23.28;27.92
62847;BME280;49477;35.676;139.586;2023-04-25T09:13:41;101636.25;;;23.04;27.91
62847;BME280;49477;35.676;139.586;2023-04-25T09:16:11;101640.31;;;23.04;27.96
62847;BME280;49477;35.676;139.586;2023-04-25T09:18:40;101643.43;;;23.51;27.93
62847;BME280;49477;35.676;139.586;2023-04-25T09:21:11;101645.43;;;23.50;27.97
62847;BME280;49477;35.676;139.586;2023-04-25T09:23:43;101642.63;;;23.02;27.91
62847;BME280;49477;35.676;139.586;2023-04-25T09:26:15;101642.61;;;23.23;27.94
62847;BME280;49477;35.676;139.586;2023-04-25T09:28:45;101643.73;;;23.23;27.95
62847;BME280;49477;35.676;139.586;2023-04-25T09:31:23;101649.81;;;23.48;27.94
62847;BME280;49477;35.676;139.586;2023-04-25T09:33:59;101648.67;;;22.98;27.95
62847;BME280;49477;35.676;139.586;2023-04-25T09:36:30;101653.01;;;23.18;28.02
62847;BME280;49477;35.676;139.586;2023-04-25T09:39:00;101656.47;;;22.96;28.11
62847;BME280;49477;35.676;139.586;2023-04-25T09:41:30;101652.47;;;23.18;28.24
62847;BME280;49477;35.676;139.586;2023-04-25T09:44:00;101646.15;;;22.95;28.27
62847;BME280;49477;35.676;139.586;2023-04-25T09:46:34;101642.53;;;23.18;28.42
62847;BME280;49477;35.676;139.586;2023-04-25T09:49:08;101641.71;;;23.21;28.49
62847;BME280;49477;35.676;139.586;2023-04-25T09:51:37;101633.83;;;23.18;28.53
62847;BME280;49477;35.676;139.586;2023-04-25T09:54:06;101640.21;;;22.96;28.68
62847;BME280;49477;35.676;139.586;2023-04-25T09:56:38;101641.99;;;22.95;28.67
62847;BME280;49477;35.676;139.586;2023-04-25T09:59:08;101647.50;;;23.19;28.57
62847;BME280;49477;35.676;139.586;2023-04-25T10:01:41;101647.14;;;22.94;28.31
62847;BME280;49477;35.676;139.586;2023-04-25T10:04:15;101644.55;;;23.15;28.16
62847;BME280;49477;35.676;139.586;2023-04-25T10:06:50;101644.98;;;23.15;28.06
62847;BME280;49477;35.676;139.586;2023-04-25T10:09:22;101644.21;;;23.15;27.93
62847;BME280;49477;35.676;139.586;2023-04-25T10:11:55;101648.57;;;23.13;27.88
62847;BME280;49477;35.676;139.586;2023-04-25T10:14:25;101654.29;;;23.11;27.80
62847;BME280;49477;35.676;139.586;2023-04-25T10:16:55;101656.32;;;23.10;27.79
62847;BME280;49477;35.676;139.586;2023-04-25T10:19:26;101652.54;;;22.89;27.73
62847;BME280;49477;35.676;139.586;2023-04-25T10:22:03;101657.71;;;23.12;27.62
62847;BME280;49477;35.676;139.586;2023-04-25T10:24:35;101658.93;;;23.13;27.56
62847;BME280;49477;35.676;139.586;2023-04-25T10:27:06;101662.25;;;23.13;27.50
62847;BME280;49477;35.676;139.586;2023-04-25T10:29:34;101664.36;;;22.90;27.56
62847;BME280;49477;35.676;139.586;2023-04-25T10:32:06;101662.20;;;23.39;27.43
62847;BME280;49477;35.676;139.586;2023-04-25T10:34:43;101659.93;;;23.11;27.46
62847;BME280;49477;35.676;139.586;2023-04-25T10:37:13;101656.54;;;23.11;27.55
62847;BME280;49477;35.676;139.586;2023-04-25T10:39:43;101658.96;;;23.10;27.52
62847;BME280;49477;35.676;139.586;2023-04-25T10:42:12;101658.30;;;23.10;27.51
62847;BME280;49477;35.676;139.586;2023-04-25T10:45:04;101654.14;;;22.89;27.52
62847;BME280;49477;35.676;139.586;2023-04-25T10:47:43;101649.40;;;23.07;27.49
62847;BME280;49477;35.676;139.586;2023-04-25T10:50:14;101651.25;;;23.09;27.45
62847;BME280;49477;35.676;139.586;2023-04-25T10:52:44;101650.81;;;23.10;27.45
62847;BME280;49477;35.676;139.586;2023-04-25T10:55:13;101650.91;;;23.11;27.47
62847;BME280;49477;35.676;139.586;2023-04-25T10:57:44;101648.36;;;22.89;27.45
62847;BME280;49477;35.676;139.586;2023-04-25T11:00:16;101642.05;;;23.37;27.49
62847;BME280;49477;35.676;139.586;2023-04-25T11:02:48;101640.27;;;22.87;27.47
62847;BME280;49477;35.676;139.586;2023-04-25T11:05:23;101638.14;;;23.09;27.45
62847;BME280;49477;35.676;139.586;2023-04-25T11:07:57;101632.59;;;23.06;27.46
62847;BME280;49477;35.676;139.586;2023-04-25T11:10:28;101629.10;;;22.84;27.47
62847;BME280;49477;35.676;139.586;2023-04-25T11:12:58;101629.46;;;23.33;27.49
62847;BME280;49477;35.676;139.586;2023-04-25T11:15:28;101621.92;;;22.82;27.48
62847;BME280;49477;35.676;139.586;2023-04-25T11:17:57;101620.59;;;23.35;27.45
62847;BME280;49477;35.676;139.586;2023-04-25T11:20:27;101619.02;;;23.09;27.41
62847;BME280;49477;35.676;139.586;2023-04-25T11:22:58;101614.20;;;23.08;27.42
62847;BME280;49477;35.676;139.586;2023-04-25T11:25:29;101618.27;;;23.08;27.41
62847;BME280;49477;35.676;139.586;2023-04-25T11:28:00;101620.04;;;23.08;27.41
62847;BME280;49477;35.676;139.586;2023-04-25T11:30:29;101613.17;;;23.08;27.43
62847;BME280;49477;35.676;139.586;2023-04-25T11:32:58;101607.11;;;23.08;27.39
62847;BME280;49477;35.676;139.586;2023-04-25T11:35:28;101603.19;;;22.85;27.40
62847;BME280;49477;35.676;139.586;2023-04-25T11:37:58;101602.34;;;23.07;27.43
62847;BME280;49477;35.676;139.586;2023-04-25T11:40:27;101608.25;;;22.85;27.42
62847;BME280;49477;35.676;139.586;2023-04-25T11:42:56;101610.85;;;23.34;27.43
62847;BME280;49477;35.676;139.586;2023-04-25T11:45:28;101606.83;;;23.08;27.46
62847;BME280;49477;35.676;139.586;2023-04-25T11:47:58;101605.18;;;23.05;27.41
62847;BME280;49477;35.676;139.586;2023-04-25T11:50:29;101605.29;;;22.82;27.44
62847;BME280;49477;35.676;139.586;2023-04-25T11:52:59;101602.43;;;23.00;27.48
62847;BME280;49477;35.676;139.586;2023-04-25T11:55:31;101601.02;;;23.00;27.51
62847;BME280;49477;35.676;139.586;2023-04-25T11:58:01;101595.86;;;23.05;27.46
62847;BME280;49477;35.676;139.586;2023-04-25T12:00:30;101598.35;;;23.05;27.45
62847;BME280;49477;35.676;139.586;2023-04-25T12:02:59;101598.90;;;23.02;27.49
62847;BME280;49477;35.676;139.586;2023-04-25T12:05:30;101593.22;;;22.81;27.48
62847;BME280;49477;35.676;139.586;2023-04-25T12:08:11;101593.77;;;23.03;27.50
62847;BME280;49477;35.676;139.586;2023-04-25T12:10:42;101601.89;;;23.04;27.51
62847;BME280;49477;35.676;139.586;2023-04-25T12:13:27;101607.23;;;23.02;27.52
62847;BME280;49477;35.676;139.586;2023-04-25T12:15:56;101615.09;;;23.03;27.54
62847;BME280;49477;35.676;139.586;2023-04-25T12:18:26;101612.80;;;23.05;27.52
62847;BME280;49477;35.676;139.586;2023-04-25T12:20:56;101603.78;;;23.01;27.56
62847;BME280;49477;35.676;139.586;2023-04-25T12:23:30;101598.16;;;22.81;27.57
62847;BME280;49477;35.676;139.586;2023-04-25T12:25:59;101590.55;;;23.03;27.59
62847;BME280;49477;35.676;139.586;2023-04-25T12:28:28;101583.42;;;22.81;27.58
62847;BME280;49477;35.676;139.586;2023-04-25T12:31:02;101575.84;;;23.28;27.61
62847;BME280;49477;35.676;139.586;2023-04-25T12:33:34;101574.09;;;22.82;27.60
62847;BME280;49477;35.676;139.586;2023-04-25T12:36:05;101579.94;;;23.07;27.61
62847;BME280;49477;35.676;139.586;2023-04-25T12:38:39;101583.90;;;23.05;27.61
62847;BME280;49477;35.676;139.586;2023-04-25T12:41:09;101578.20;;;22.84;27.62
62847;BME280;49477;35.676;139.586;2023-04-25T12:43:38;101574.97;;;22.86;27.63
62847;BME280;49477;35.676;139.586;2023-04-25T12:46:08;101565.92;;;23.37;27.76